createdAt,value
2023-04-29T00:01:35.617Z,87.20
2023-04-29T00:04:03.086Z,89.00
2023-04-29T00:06:30.584Z,85.84
2023-04-29T00:08:58.006Z,87.27
2023-04-29T00:11:25.310Z,88.83
2023-04-29T00:13:52.706Z,86.54
2023-04-29T00:16:20.150Z,89.10
2023-04-29T00:18:47.428Z,87.50
2023-04-29T00:21:14.695Z,87.07
2023-04-29T00:23:41.858Z,88.02
2023-04-29T00:26:09.234Z,90.86
2023-04-29T00:28:36.586Z,90.65
2023-04-29T00:31:03.927Z,91.14
2023-04-29T00:33:31.147Z,92.34
2023-04-29T00:35:58.360Z,91.74
2023-04-29T00:38:25.622Z,91.33
2023-04-29T00:40:53.030Z,92.25
2023-04-29T00:43:20.600Z,92.60
2023-04-29T00:45:48.632Z,93.70
2023-04-29T00:48:16.163Z,94.51
2023-04-29T00:50:43.425Z,94.04
2023-04-29T00:53:14.849Z,93.23
2023-04-29T00:55:44.255Z,93.83
2023-04-29T00:58:11.934Z,94.09
2023-04-29T01:00:41.083Z,93.83
2023-04-29T01:03:09.074Z,94.52
2023-04-29T01:05:36.410Z,94.21
2023-04-29T01:08:33.691Z,93.72
2023-04-29T01:11:10.473Z,94.09
2023-04-29T01:13:45.137Z,96.08
2023-04-29T01:16:47.309Z,96.23
2023-04-29T01:19:47.204Z,96.81
2023-04-29T01:22:15.035Z,96.00
2023-04-29T01:24:42.713Z,96.21
2023-04-29T01:27:31.224Z,96.01
2023-04-29T01:30:21.944Z,96.17
2023-04-29T01:33:19.944Z,95.84
2023-04-29T01:36:17.087Z,95.48
2023-04-29T01:39:12.719Z,94.68
2023-04-29T01:42:18.774Z,95.43
2023-04-29T01:44:48.958Z,95.53
2023-04-29T01:47:19.991Z,96.03
2023-04-29T01:49:50.581Z,95.58
2023-04-29T01:52:18.123Z,95.88
2023-04-29T01:54:52.844Z,96.88
2023-04-29T01:57:20.448Z,98.17
2023-04-29T02:00:04.246Z,96.66
2023-04-29T02:02:31.518Z,96.79
2023-04-29T02:05:05.948Z,96.63
2023-04-29T02:07:33.311Z,97.16
2023-04-29T02:10:00.640Z,97.08
2023-04-29T02:12:28.183Z,97.71
2023-04-29T02:14:56.308Z,98.15
2023-04-29T02:17:25.681Z,97.98
2023-04-29T02:19:54.727Z,98.06
2023-04-29T02:22:22.025Z,98.09
2023-04-29T02:24:49.357Z,98.41
2023-04-29T02:27:16.651Z,97.60
2023-04-29T02:29:44.618Z,98.08
2023-04-29T02:32:14.701Z,98.10
2023-04-29T02:34:41.933Z,98.44
2023-04-29T02:37:09.180Z,97.92
2023-04-29T02:39:36.467Z,98.28
2023-04-29T02:42:03.759Z,97.68
2023-04-29T02:44:31.011Z,98.32
2023-04-29T02:46:58.384Z,97.35
2023-04-29T02:49:26.127Z,97.49
2023-04-29T02:51:53.862Z,99.19
2023-04-29T02:54:21.782Z,99.57
2023-04-29T02:56:49.234Z,98.93
2023-04-29T02:59:16.558Z,98.82
2023-04-29T03:01:43.954Z,98.46
2023-04-29T03:04:12.235Z,98.63
2023-04-29T03:06:39.727Z,98.85
2023-04-29T03:09:07.062Z,98.60
2023-04-29T03:11:34.259Z,97.54
2023-04-29T03:14:01.626Z,98.51
2023-04-29T03:16:29.999Z,98.85
2023-04-29T03:18:57.686Z,98.88
2023-04-29T03:21:25.832Z,99.24
2023-04-29T03:23:53.076Z,98.65
2023-04-29T03:26:26.304Z,98.17
2023-04-29T03:28:53.598Z,98.28
2023-04-29T03:31:22.651Z,98.62
2023-04-29T03:33:50.567Z,98.09
2023-04-29T03:36:17.849Z,98.57
2023-04-29T03:38:53.727Z,98.46
2023-04-29T03:41:23.481Z,99.53
2023-04-29T03:43:51.304Z,98.58
2023-04-29T03:46:18.690Z,98.50
2023-04-29T03:48:46.156Z,97.77
2023-04-29T03:51:13.623Z,97.41
2023-04-29T03:53:41.102Z,98.82
2023-04-29T03:56:08.765Z,98.68
2023-04-29T03:58:36.667Z,98.56
2023-04-29T04:01:04.311Z,97.87
2023-04-29T04:03:37.534Z,97.96
2023-04-29T04:06:05.099Z,98.45
2023-04-29T04:08:32.577Z,99.11
2023-04-29T04:11:14.729Z,98.39
2023-04-29T04:13:49.326Z,98.84
2023-04-29T04:16:16.790Z,98.35
2023-04-29T04:18:43.994Z,99.41
2023-04-29T04:21:12.406Z,99.84
2023-04-29T04:23:41.987Z,98.72
2023-04-29T04:26:10.809Z,98.78
2023-04-29T04:28:56.792Z,98.16
2023-04-29T04:31:37.766Z,97.33
2023-04-29T04:34:05.224Z,95.99
2023-04-29T04:36:33.030Z,95.72
2023-04-29T04:39:00.833Z,95.92
2023-04-29T04:41:31.051Z,95.23
2023-04-29T04:43:58.440Z,94.62
2023-04-29T04:46:51.986Z,93.37
2023-04-29T04:49:31.346Z,93.33
2023-04-29T04:51:58.671Z,92.65
2023-04-29T04:54:26.582Z,92.92
2023-04-29T04:57:02.663Z,92.66
2023-04-29T04:59:29.948Z,92.63
2023-04-29T05:01:57.285Z,91.67
2023-04-29T05:04:24.820Z,90.99
2023-04-29T05:06:52.433Z,92.25
2023-04-29T05:09:19.906Z,92.21
2023-04-29T05:11:47.510Z,91.80
2023-04-29T05:14:17.644Z,90.42
2023-04-29T05:16:46.061Z,91.17
2023-04-29T05:19:13.429Z,91.50
2023-04-29T05:21:40.790Z,90.67
2023-04-29T05:24:09.654Z,91.60
2023-04-29T05:26:37.667Z,88.90
2023-04-29T05:29:06.129Z,89.93
2023-04-29T05:31:39.215Z,86.78
2023-04-29T05:34:06.549Z,87.04
2023-04-29T05:36:33.945Z,85.01
2023-04-29T05:39:01.145Z,83.48
2023-04-29T05:41:29.399Z,82.05
2023-04-29T05:44:09.825Z,81.45
2023-04-29T05:46:37.445Z,80.13
2023-04-29T05:49:04.995Z,79.38
2023-04-29T05:51:32.329Z,79.29
2023-04-29T05:53:59.964Z,77.81
2023-04-29T05:56:27.412Z,76.93
2023-04-29T05:58:55.822Z,77.23
2023-04-29T06:01:23.575Z,74.78
2023-04-29T06:03:51.029Z,73.69
2023-04-29T06:06:36.811Z,74.13
2023-04-29T06:09:13.427Z,73.53
2023-04-29T06:11:46.241Z,73.22
2023-04-29T06:14:13.617Z,72.94
2023-04-29T06:16:41.084Z,72.61
2023-04-29T06:19:09.699Z,72.58
2023-04-29T06:21:36.952Z,73.36
2023-04-29T06:24:04.824Z,73.38
2023-04-29T06:26:32.083Z,72.11
2023-04-29T06:28:59.347Z,71.65
2023-04-29T06:31:27.273Z,71.08
2023-04-29T06:33:58.756Z,68.10
2023-04-29T06:36:26.677Z,66.55
2023-04-29T06:39:16.190Z,63.81
2023-04-29T06:42:03.746Z,63.19
2023-04-29T06:44:46.996Z,61.98
2023-04-29T06:47:37.284Z,61.51
2023-04-29T06:50:09.302Z,57.86
2023-04-29T06:52:37.121Z,57.58
2023-04-29T06:55:05.394Z,58.61
2023-04-29T06:57:33.310Z,56.89
2023-04-29T07:00:00.721Z,57.69
2023-04-29T07:02:28.193Z,58.06
2023-04-29T07:04:55.678Z,57.52
2023-04-29T07:07:23.263Z,58.12
2023-04-29T07:09:53.010Z,55.77
2023-04-29T07:12:21.047Z,54.25
2023-04-29T07:14:48.461Z,55.39
2023-04-29T07:17:16.063Z,54.73
2023-04-29T07:19:43.928Z,50.21
2023-04-29T07:22:12.187Z,50.84
2023-04-29T07:24:39.465Z,49.42
2023-04-29T07:27:06.949Z,50.01
2023-04-29T07:29:34.210Z,50.56
2023-04-29T07:32:01.533Z,51.47
2023-04-29T07:34:28.828Z,50.98
2023-04-29T07:36:56.856Z,49.86
2023-04-29T07:39:24.192Z,50.03
2023-04-29T07:41:55.801Z,48.36
2023-04-29T07:44:23.191Z,47.57
2023-04-29T07:46:50.555Z,47.23
2023-04-29T07:49:18.751Z,50.12
2023-04-29T07:51:46.610Z,48.35
2023-04-29T07:54:15.444Z,49.13
2023-04-29T07:56:42.655Z,44.14
2023-04-29T07:59:09.908Z,42.63
2023-04-29T08:01:38.035Z,40.60
2023-04-29T08:04:05.711Z,41.26
2023-04-29T08:06:36.402Z,39.68
2023-04-29T08:09:04.264Z,40.37
2023-04-29T08:11:31.639Z,41.88
2023-04-29T08:13:59.708Z,39.44
2023-04-29T08:16:27.551Z,41.00
2023-04-29T08:18:55.652Z,41.52
2023-04-29T08:21:23.472Z,40.60
2023-04-29T08:23:50.862Z,40.25
2023-04-29T08:26:18.134Z,41.16
2023-04-29T08:28:45.434Z,40.73
2023-04-29T08:31:20.575Z,41.55
2023-04-29T08:33:48.765Z,40.53
2023-04-29T08:36:16.104Z,40.93
2023-04-29T08:38:43.549Z,40.61
2023-04-29T08:41:11.337Z,38.96
2023-04-29T08:43:41.602Z,38.42
2023-04-29T08:46:10.488Z,37.79
2023-04-29T08:48:40.411Z,34.55
2023-04-29T08:51:13.004Z,35.18
2023-04-29T08:53:40.409Z,36.51
2023-04-29T08:56:20.023Z,36.04
2023-04-29T08:58:53.808Z,36.77
2023-04-29T09:01:23.636Z,37.53
2023-04-29T09:03:58.857Z,36.69
2023-04-29T09:06:26.742Z,34.84
2023-04-29T09:08:54.006Z,34.21
2023-04-29T09:11:22.124Z,32.68
2023-04-29T09:13:49.505Z,33.03
2023-04-29T09:16:16.752Z,33.45
2023-04-29T09:18:51.649Z,34.41
2023-04-29T09:21:27.224Z,33.02
2023-04-29T09:23:56.702Z,33.73
2023-04-29T09:26:24.826Z,35.34
2023-04-29T09:29:13.453Z,33.91
2023-04-29T09:31:41.578Z,33.76
2023-04-29T09:34:11.097Z,34.15
2023-04-29T09:36:50.309Z,33.45
2023-04-29T09:39:22.750Z,32.46
2023-04-29T09:41:53.110Z,32.43
2023-04-29T09:44:23.238Z,30.44
2023-04-29T09:47:02.406Z,32.48
2023-04-29T09:49:32.312Z,33.64
2023-04-29T09:52:02.086Z,31.16
2023-04-29T09:54:34.076Z,31.86
2023-04-29T09:57:06.444Z,32.64
2023-04-29T09:59:35.779Z,31.53
2023-04-29T10:02:24.950Z,31.11
2023-04-29T10:04:57.039Z,31.39
2023-04-29T10:07:27.647Z,30.82
2023-04-29T10:09:55.975Z,31.34
2023-04-29T10:12:25.996Z,31.75
2023-04-29T10:15:09.571Z,31.69
2023-04-29T10:17:44.377Z,29.84
2023-04-29T10:20:23.614Z,31.47
2023-04-29T10:22:56.719Z,32.30
2023-04-29T10:25:27.547Z,30.90
2023-04-29T10:27:55.909Z,30.27
2023-04-29T10:30:23.387Z,31.72
2023-04-29T10:32:52.476Z,31.36
2023-04-29T10:35:24.855Z,30.71
2023-04-29T10:37:53.196Z,31.12
2023-04-29T10:40:47.743Z,30.56
2023-04-29T10:43:15.706Z,30.69
2023-04-29T10:45:43.021Z,30.47
2023-04-29T10:48:12.678Z,29.35
2023-04-29T10:50:49.168Z,28.18
2023-04-29T10:53:20.275Z,28.64
2023-04-29T10:55:53.040Z,31.44
2023-04-29T10:58:56.246Z,31.88
2023-04-29T11:01:41.929Z,28.51
2023-04-29T11:04:10.484Z,28.09
2023-04-29T11:06:40.945Z,27.52
2023-04-29T11:09:18.838Z,27.00
2023-04-29T11:12:04.847Z,27.68
2023-04-29T11:14:38.335Z,27.67
2023-04-29T11:17:16.915Z,27.09
2023-04-29T11:19:46.586Z,28.44
2023-04-29T11:22:17.392Z,26.28
2023-04-29T11:24:54.052Z,26.41
2023-04-29T11:27:29.483Z,27.01
2023-04-29T11:29:58.221Z,27.13
2023-04-29T11:32:34.480Z,27.12
2023-04-29T11:35:16.899Z,26.04
2023-04-29T11:37:46.610Z,26.48
2023-04-29T11:40:14.777Z,27.00
2023-04-29T11:42:45.553Z,26.18
2023-04-29T11:45:14.488Z,24.38
2023-04-29T11:47:47.025Z,25.87
2023-04-29T11:50:18.643Z,26.16
2023-04-29T11:52:47.727Z,24.44
2023-04-29T11:55:15.484Z,24.99
2023-04-29T11:57:43.218Z,24.92
2023-04-29T12:00:13.079Z,25.36
2023-04-29T12:02:48.442Z,24.92
2023-04-29T12:05:17.763Z,24.16
2023-04-29T12:07:45.281Z,23.48
2023-04-29T12:10:12.713Z,23.18
2023-04-29T12:12:43.047Z,23.57
2023-04-29T12:15:12.097Z,23.15
2023-04-29T12:17:40.834Z,23.95
2023-04-29T12:20:09.976Z,25.36
2023-04-29T12:22:37.876Z,24.47
2023-04-29T12:25:07.166Z,23.35
2023-04-29T12:27:36.193Z,22.80
2023-04-29T12:30:08.903Z,23.83
2023-04-29T12:32:36.544Z,21.43
2023-04-29T12:35:04.288Z,22.22
2023-04-29T12:37:32.828Z,23.63
2023-04-29T12:40:00.246Z,22.83
2023-04-29T12:42:33.629Z,24.01
2023-04-29T12:45:01.069Z,22.55
2023-04-29T12:47:35.308Z,23.74
2023-04-29T12:50:02.643Z,21.55
2023-04-29T12:52:30.031Z,22.44
2023-04-29T12:54:57.534Z,21.96
2023-04-29T12:57:25.960Z,23.41
2023-04-29T12:59:53.317Z,24.19
2023-04-29T13:02:21.099Z,21.91
2023-04-29T13:04:48.957Z,22.30
2023-04-29T13:07:16.359Z,21.58
2023-04-29T13:09:43.514Z,21.45
2023-04-29T13:12:10.792Z,21.82
2023-04-29T13:14:38.129Z,23.22
2023-04-29T13:17:05.873Z,22.88
2023-04-29T13:19:49.550Z,22.71
2023-04-29T13:22:17.624Z,22.57
2023-04-29T13:24:45.466Z,22.28
2023-04-29T13:27:12.755Z,21.79
2023-04-29T13:29:40.212Z,21.77
2023-04-29T13:32:08.223Z,24.20
2023-04-29T13:34:35.696Z,23.66
2023-04-29T13:37:03.113Z,22.68
2023-04-29T13:39:30.428Z,22.19
2023-04-29T13:41:59.231Z,21.56
2023-04-29T13:44:34.416Z,21.14
2023-04-29T13:47:07.444Z,21.55
2023-04-29T13:50:10.021Z,22.20
2023-04-29T13:59:54.788Z,19.84
2023-04-29T14:02:25.696Z,19.94
2023-04-29T14:04:54.430Z,19.57
2023-04-29T14:07:22.709Z,19.79
2023-04-29T14:09:50.005Z,20.17
2023-04-29T14:12:17.330Z,19.41
2023-04-29T14:14:44.620Z,18.46
2023-04-29T14:17:11.921Z,18.73
2023-04-29T14:19:39.253Z,19.21
2023-04-29T14:22:06.584Z,19.90
2023-04-29T14:24:33.918Z,19.36
2023-04-29T14:27:01.712Z,20.14
2023-04-29T14:29:29.346Z,20.40
2023-04-29T14:31:57.018Z,20.00
2023-04-29T14:34:24.289Z,19.75
2023-04-29T14:36:51.733Z,20.20
2023-04-29T14:39:18.919Z,20.29
2023-04-29T14:41:47.806Z,19.61
2023-04-29T14:44:15.137Z,19.40
2023-04-29T14:46:42.526Z,18.97
2023-04-29T14:49:10.034Z,17.89
2023-04-29T14:51:37.320Z,17.92
2023-04-29T14:54:04.743Z,18.64
2023-04-29T14:56:32.108Z,18.31
2023-04-29T14:58:59.454Z,18.19
2023-04-29T15:01:26.848Z,17.79
2023-04-29T15:03:54.233Z,18.56
2023-04-29T15:06:21.631Z,18.76
2023-04-29T15:08:49.008Z,18.87
2023-04-29T15:11:16.517Z,18.80
2023-04-29T15:13:44.012Z,19.98
2023-04-29T15:16:11.586Z,18.91
2023-04-29T15:18:39.270Z,18.55
2023-04-29T15:21:07.049Z,18.48
2023-04-29T15:23:34.391Z,18.23
2023-04-29T15:26:01.780Z,18.27
2023-04-29T15:28:29.135Z,18.72
2023-04-29T15:30:56.435Z,18.02
2023-04-29T15:33:23.927Z,17.68
2023-04-29T15:35:51.340Z,17.12
2023-04-29T15:38:18.698Z,18.23
2023-04-29T15:40:46.028Z,18.52
2023-04-29T15:43:13.400Z,18.90
2023-04-29T15:45:41.902Z,18.62
2023-04-29T15:48:09.519Z,18.45
2023-04-29T15:50:36.993Z,18.97
2023-04-29T15:53:04.239Z,18.39
2023-04-29T15:55:34.550Z,18.98
2023-04-29T15:58:02.136Z,18.34
2023-04-29T16:00:29.631Z,20.54
2023-04-29T16:02:56.967Z,19.68
2023-04-29T16:05:24.388Z,20.49
2023-04-29T16:07:51.654Z,19.75
2023-04-29T16:10:19.215Z,19.78
2023-04-29T16:12:46.463Z,19.38
2023-04-29T16:15:13.896Z,19.55
2023-04-29T16:17:41.540Z,19.46
2023-04-29T16:20:09.384Z,21.17
2023-04-29T16:22:36.683Z,21.20
2023-04-29T16:25:04.503Z,21.90
2023-04-29T16:27:31.838Z,22.95
2023-04-29T16:29:59.418Z,23.28
2023-04-29T16:32:28.465Z,24.47
2023-04-29T16:34:55.926Z,25.44
2023-04-29T16:37:23.682Z,27.16
2023-04-29T16:39:51.252Z,27.69
2023-04-29T16:42:19.126Z,27.35
2023-04-29T16:44:46.351Z,28.23
2023-04-29T16:47:14.121Z,29.13
2023-04-29T16:49:41.931Z,30.08
2023-04-29T16:52:09.473Z,30.81
2023-04-29T16:54:36.973Z,31.27
2023-04-29T16:57:04.224Z,31.73
2023-04-29T16:59:31.514Z,32.14
2023-04-29T17:02:00.757Z,33.78
2023-04-29T17:04:30.745Z,35.15
2023-04-29T17:07:00.852Z,35.59
2023-04-29T17:09:28.269Z,37.26
2023-04-29T17:11:55.697Z,38.00
2023-04-29T17:14:23.152Z,42.02
2023-04-29T17:16:50.379Z,40.69
2023-04-29T17:19:18.147Z,41.85
2023-04-29T17:21:46.016Z,41.85
2023-04-29T17:24:13.441Z,44.30
2023-04-29T17:26:40.659Z,45.17
2023-04-29T17:29:08.315Z,48.10
2023-04-29T17:31:44.689Z,44.62
2023-04-29T17:34:23.348Z,45.32
2023-04-29T17:36:53.515Z,46.54
2023-04-29T17:39:20.849Z,46.94
2023-04-29T17:41:48.253Z,49.83
2023-04-29T17:44:15.797Z,49.35
2023-04-29T17:46:43.451Z,56.17
2023-04-29T17:49:11.033Z,53.87
2023-04-29T17:51:38.495Z,54.22
2023-04-29T17:54:07.485Z,52.96
2023-04-29T17:56:35.278Z,54.13
2023-04-29T17:59:07.605Z,52.60
2023-04-29T18:01:35.239Z,52.13
2023-04-29T18:04:03.085Z,53.65
2023-04-29T18:06:31.243Z,55.55
2023-04-29T18:08:58.595Z,53.90
2023-04-29T18:11:25.963Z,54.13
2023-04-29T18:13:53.926Z,57.22
2023-04-29T18:16:21.276Z,57.00
2023-04-29T18:18:51.889Z,54.68
2023-04-29T18:21:25.092Z,55.41
2023-04-29T18:23:53.163Z,54.51
2023-04-29T18:26:20.444Z,56.30
2023-04-29T18:28:48.123Z,56.54
2023-04-29T18:31:16.345Z,58.64
2023-04-29T18:33:44.817Z,55.03
2023-04-29T18:36:13.612Z,54.80
2023-04-29T18:38:41.152Z,55.49
2023-04-29T18:41:08.775Z,57.50
2023-04-29T18:43:36.128Z,57.45
2023-04-29T18:46:03.535Z,59.34
2023-04-29T18:48:30.986Z,58.16
2023-04-29T18:51:03.649Z,59.61
2023-04-29T18:53:31.452Z,60.08
2023-04-29T18:55:58.714Z,59.39
2023-04-29T18:58:26.765Z,60.07
2023-04-29T19:00:54.640Z,60.30
2023-04-29T19:03:22.299Z,59.95
2023-04-29T19:05:50.156Z,60.53
2023-04-29T19:08:17.518Z,61.14
2023-04-29T19:10:45.281Z,61.57
2023-04-29T19:13:12.499Z,59.96
2023-04-29T19:15:40.458Z,59.33
2023-04-29T19:18:07.878Z,60.27
2023-04-29T19:20:35.323Z,62.85
2023-04-29T19:23:02.581Z,61.78
2023-04-29T19:25:31.136Z,61.67
2023-04-29T19:27:58.337Z,61.48
2023-04-29T19:30:26.328Z,62.54
2023-04-29T19:32:53.682Z,64.51
2023-04-29T19:35:21.274Z,63.56
2023-04-29T19:37:48.597Z,64.11
2023-04-29T19:40:15.961Z,63.85
2023-04-29T19:42:43.217Z,64.70
2023-04-29T19:45:11.958Z,65.46
2023-04-29T19:47:39.290Z,64.50
2023-04-29T19:50:07.292Z,65.43
2023-04-29T19:52:34.750Z,65.06
2023-04-29T19:55:02.044Z,65.14
2023-04-29T19:57:30.044Z,65.35
2023-04-29T19:59:57.371Z,65.73
2023-04-29T20:02:24.604Z,65.91
2023-04-29T20:04:52.176Z,64.42
2023-04-29T20:07:19.493Z,64.78
2023-04-29T20:09:47.780Z,63.93
2023-04-29T20:12:15.467Z,63.92
2023-04-29T20:14:42.837Z,65.11
2023-04-29T20:17:10.109Z,66.89
2023-04-29T20:19:37.401Z,67.72
2023-04-29T20:22:04.860Z,66.35
2023-04-29T20:24:32.148Z,65.04
2023-04-29T20:26:59.409Z,66.31
2023-04-29T20:29:27.561Z,68.45
2023-04-29T20:31:55.273Z,68.75
2023-04-29T20:34:22.687Z,67.77
2023-04-29T20:36:50.363Z,69.42
2023-04-29T20:39:18.111Z,67.73
2023-04-29T20:41:45.522Z,67.53
2023-04-29T20:44:12.759Z,69.27
2023-04-29T20:46:40.733Z,68.83
2023-04-29T20:49:08.012Z,70.16
2023-04-29T20:51:35.278Z,70.34
2023-04-29T20:54:02.488Z,71.40
2023-04-29T20:56:29.740Z,70.25
2023-04-29T20:58:58.325Z,72.07
2023-04-29T21:01:25.623Z,70.89
2023-04-29T21:03:52.911Z,72.65
2023-04-29T21:06:20.343Z,73.74
2023-04-29T21:08:47.652Z,72.11
2023-04-29T21:11:14.901Z,70.49
2023-04-29T21:13:49.169Z,72.03
2023-04-29T21:16:17.264Z,74.15
2023-04-29T21:18:44.737Z,75.56
2023-04-29T21:21:12.154Z,76.08
2023-04-29T21:23:39.369Z,74.87
2023-04-29T21:26:06.589Z,76.62
2023-04-29T21:28:33.958Z,77.85
2023-04-29T21:31:01.253Z,75.23
2023-04-29T21:33:28.563Z,77.81
2023-04-29T21:35:55.828Z,77.23
2023-04-29T21:38:23.127Z,78.55
2023-04-29T21:40:50.983Z,76.42
2023-04-29T21:43:19.261Z,75.49
2023-04-29T21:45:46.478Z,77.35
2023-04-29T21:48:19.616Z,78.45
2023-04-29T21:50:47.532Z,79.38
2023-04-29T21:53:16.339Z,81.67
2023-04-29T21:55:43.939Z,80.91
2023-04-29T21:58:11.368Z,80.93
2023-04-29T22:00:40.618Z,81.13
2023-04-29T22:03:09.355Z,81.77
2023-04-29T22:05:37.132Z,81.81
2023-04-29T22:08:06.600Z,81.29
2023-04-29T22:10:33.935Z,80.42
2023-04-29T22:13:01.201Z,81.22
2023-04-29T22:15:29.517Z,81.15
2023-04-29T22:17:57.681Z,80.59
2023-04-29T22:20:25.538Z,81.06
2023-04-29T22:22:53.275Z,80.76
2023-04-29T22:25:21.117Z,80.68
2023-04-29T22:27:49.486Z,82.52
2023-04-29T22:30:17.174Z,79.99
2023-04-29T22:32:44.469Z,80.09
2023-04-29T22:35:11.872Z,79.59
2023-04-29T22:37:39.135Z,79.01
2023-04-29T22:40:07.778Z,79.88
2023-04-29T22:42:35.144Z,81.28
2023-04-29T22:45:02.437Z,81.11
2023-04-29T22:47:29.823Z,81.72
2023-04-29T22:49:57.146Z,81.90
2023-04-29T22:52:25.304Z,82.35
2023-04-29T22:54:52.828Z,83.03
2023-04-29T22:57:20.124Z,84.91
2023-04-29T22:59:47.333Z,84.91
2023-04-29T23:02:15.265Z,86.48
2023-04-29T23:04:42.574Z,86.01
2023-04-29T23:07:09.767Z,86.36
2023-04-29T23:09:36.965Z,85.43
2023-04-29T23:12:04.658Z,86.37
2023-04-29T23:14:31.918Z,85.98
2023-04-29T23:16:59.081Z,85.51
2023-04-29T23:19:26.342Z,87.87
2023-04-29T23:21:53.663Z,87.26
2023-04-29T23:24:20.908Z,88.31
2023-04-29T23:26:48.979Z,90.75
2023-04-29T23:29:16.568Z,90.43
2023-04-29T23:31:44.844Z,91.26
2023-04-29T23:34:12.726Z,90.56
2023-04-29T23:36:39.947Z,89.34
2023-04-29T23:39:07.203Z,90.33
2023-04-29T23:41:34.490Z,88.99
2023-04-29T23:44:01.944Z,88.74
2023-04-29T23:46:30.229Z,87.81
2023-04-29T23:48:57.550Z,87.30
2023-04-29T23:51:25.776Z,87.50
2023-04-29T23:53:53.120Z,86.92
2023-04-29T23:56:20.467Z,87.86
2023-04-29T23:58:47.626Z,87.22
